sensor_id;sensor_type;location;lat;lon;timestamp;pressure;altitude;pressure_sealevel;temperature;humidity
68525;BME280;55524;51.380;13.372;2023-09-07T00:00:57;101248.22;;;15.35;100.00
68525;BME280;55524;51.380;13.372;2023-09-07T00:03:24;101246.56;;;15.33;100.00
68525;BME280;55524;51.380;13.372;2023-09-07T00:05:50;101247.31;;;15.36;100.00
68525;BME280;55524;51.380;13.372;2023-09-07T00:08:16;101256.16;;;15.37;100.00
68525;BME280;55524;51.380;13.372;2023-09-07T00:10:42;101259.56;;;15.40;100.00
68525;BME280;55524;51.380;13.372;2023-09-07T00:13:09;101254.28;;;15.39;100.00
68525;BME280;55524;51.380;13.372;2023-09-07T00:15:38;101260.81;;;15.32;100.00
68525;BME280;55524;51.380;13.372;2023-09-07T00:18:05;101253.66;;;15.32;100.00
68525;BME280;55524;51.380;13.372;2023-09-07T00:20:32;101261.66;;;15.32;100.00
68525;BME280;55524;51.380;13.372;2023-09-07T00:23:00;101254.63;;;15.31;100.00
68525;BME280;55524;51.380;13.372;2023-09-07T00:25:27;101259.94;;;15.31;100.00
68525;BME280;55524;51.380;13.372;2023-09-07T00:27:54;101263.66;;;15.27;100.00
68525;BME280;55524;51.380;13.372;2023-09-07T00:30:20;101264.34;;;15.12;100.00
68525;BME280;55524;51.380;13.372;2023-09-07T00:32:47;101265.72;;;15.00;100.00
68525;BME280;55524;51.380;13.372;2023-09-07T00:35:14;101261.53;;;14.94;100.00
68525;BME280;55524;51.380;13.372;2023-09-07T00:37:40;101259.81;;;14.93;100.00
68525;BME280;55524;51.380;13.372;2023-09-07T00:40:08;101255.47;;;14.91;100.00
68525;BME280;55524;51.380;13.372;2023-09-07T00:42:35;101261.78;;;14.88;100.00
68525;BME280;55524;51.380;13.372;2023-09-07T00:45:02;101256.53;;;14.87;100.00
68525;BME280;55524;51.380;13.372;2023-09-07T00:47:29;101255.91;;;14.80;100.00
68525;BME280;55524;51.380;13.372;2023-09-07T00:49:55;101249.19;;;14.71;100.00
68525;BME280;55524;51.380;13.372;2023-09-07T00:52:21;101252.16;;;14.64;100.00
68525;BME280;55524;51.380;13.372;2023-09-07T00:54:48;101256.63;;;14.63;100.00
68525;BME280;55524;51.380;13.372;2023-09-07T00:57:15;101252.25;;;14.62;100.00
68525;BME280;55524;51.380;13.372;2023-09-07T00:59:41;101249.63;;;14.61;100.00
68525;BME280;55524;51.380;13.372;2023-09-07T01:02:07;101253.16;;;14.61;100.00
68525;BME280;55524;51.380;13.372;2023-09-07T01:04:34;101250.50;;;14.61;100.00
68525;BME280;55524;51.380;13.372;2023-09-07T01:07:07;101249.88;;;14.55;100.00
68525;BME280;55524;51.380;13.372;2023-09-07T01:09:37;101248.22;;;14.52;100.00
68525;BME280;55524;51.380;13.372;2023-09-07T01:12:06;101247.22;;;14.55;100.00
68525;BME280;55524;51.380;13.372;2023-09-07T01:14:36;101248.94;;;14.56;100.00
68525;BME280;55524;51.380;13.372;2023-09-07T01:17:04;101251.28;;;14.63;100.00
68525;BME280;55524;51.380;13.372;2023-09-07T01:19:31;101249.47;;;14.65;100.00
68525;BME280;55524;51.380;13.372;2023-09-07T01:21:58;101243.25;;;14.65;100.00
68525;BME280;55524;51.380;13.372;2023-09-07T01:24:25;101248.56;;;14.65;100.00
68525;BME280;55524;51.380;13.372;2023-09-07T01:26:52;101242.84;;;14.54;100.00
68525;BME280;55524;51.380;13.372;2023-09-07T01:29:19;101232.59;;;14.43;100.00
68525;BME280;55524;51.380;13.372;2023-09-07T01:31:45;101234.38;;;14.20;100.00
68525;BME280;55524;51.380;13.372;2023-09-07T01:34:12;101238.38;;;14.09;100.00
68525;BME280;55524;51.380;13.372;2023-09-07T01:36:38;101238.69;;;14.01;100.00
68525;BME280;55524;51.380;13.372;2023-09-07T01:39:05;101241.53;;;13.96;100.00
68525;BME280;55524;51.380;13.372;2023-09-07T01:41:32;101251.19;;;13.99;100.00
68525;BME280;55524;51.380;13.372;2023-09-07T01:43:59;101249.50;;;13.96;100.00
68525;BME280;55524;51.380;13.372;2023-09-07T01:46:25;101244.44;;;13.90;100.00
68525;BME280;55524;51.380;13.372;2023-09-07T01:48:52;101242.81;;;13.86;100.00
68525;BME280;55524;51.380;13.372;2023-09-07T01:51:18;101245.69;;;13.80;100.00
68525;BME280;55524;51.380;13.372;2023-09-07T01:53:47;101244.25;;;13.71;100.00
68525;BME280;55524;51.380;13.372;2023-09-07T01:56:17;101240.00;;;13.66;100.00
68525;BME280;55524;51.380;13.372;2023-09-07T01:58:44;101238.81;;;13.51;100.00
68525;BME280;55524;51.380;13.372;2023-09-07T02:01:26;101243.47;;;13.44;100.00
68525;BME280;55524;51.380;13.372;2023-09-07T02:03:53;101236.19;;;13.49;100.00
68525;BME280;55524;51.380;13.372;2023-09-07T02:06:19;101239.72;;;13.50;100.00
68525;BME280;55524;51.380;13.372;2023-09-07T02:08:45;101242.22;;;13.55;100.00
68525;BME280;55524;51.380;13.372;2023-09-07T02:11:12;101232.41;;;13.57;100.00
68525;BME280;55524;51.380;13.372;2023-09-07T02:13:42;101238.56;;;13.57;100.00
68525;BME280;55524;51.380;13.372;2023-09-07T02:16:09;101244.22;;;13.48;100.00
68525;BME280;55524;51.380;13.372;2023-09-07T02:18:36;101238.81;;;13.51;100.00
68525;BME280;55524;51.380;13.372;2023-09-07T02:21:13;101245.00;;;13.51;100.00
68525;BME280;55524;51.380;13.372;2023-09-07T02:23:41;101247.25;;;13.62;100.00
68525;BME280;55524;51.380;13.372;2023-09-07T02:26:08;101252.56;;;13.62;100.00
68525;BME280;55524;51.380;13.372;2023-09-07T02:28:34;101254.00;;;13.47;100.00
68525;BME280;55524;51.380;13.372;2023-09-07T02:31:04;101241.19;;;13.34;100.00
68525;BME280;55524;51.380;13.372;2023-09-07T02:33:31;101246.38;;;13.12;100.00
68525;BME280;55524;51.380;13.372;2023-09-07T02:35:57;101245.94;;;12.99;100.00
68525;BME280;55524;51.380;13.372;2023-09-07T02:38:24;101240.56;;;13.00;100.00
68525;BME280;55524;51.380;13.372;2023-09-07T02:40:51;101244.84;;;13.04;100.00
68525;BME280;55524;51.380;13.372;2023-09-07T02:43:17;101245.56;;;13.10;100.00
68525;BME280;55524;51.380;13.372;2023-09-07T02:45:44;101246.28;;;13.15;100.00
68525;BME280;55524;51.380;13.372;2023-09-07T02:48:10;101246.41;;;13.10;100.00
68525;BME280;55524;51.380;13.372;2023-09-07T02:50:37;101251.25;;;12.99;100.00
68525;BME280;55524;51.380;13.372;2023-09-07T02:53:03;101253.09;;;12.70;100.00
68525;BME280;55524;51.380;13.372;2023-09-07T02:55:30;101255.69;;;12.72;100.00
68525;BME280;55524;51.380;13.372;2023-09-07T02:57:57;101254.22;;;12.63;100.00
68525;BME280;55524;51.380;13.372;2023-09-07T03:00:23;101256.88;;;12.63;100.00
68525;BME280;55524;51.380;13.372;2023-09-07T03:02:50;101257.91;;;12.59;100.00
68525;BME280;55524;51.380;13.372;2023-09-07T03:05:17;101250.81;;;12.60;100.00
68525;BME280;55524;51.380;13.372;2023-09-07T03:07:45;101253.38;;;12.61;100.00
68525;BME280;55524;51.380;13.372;2023-09-07T03:10:12;101252.38;;;12.65;100.00
68525;BME280;55524;51.380;13.372;2023-09-07T03:12:39;101254.16;;;12.65;100.00
68525;BME280;55524;51.380;13.372;2023-09-07T03:15:05;101252.44;;;12.64;100.00
68525;BME280;55524;51.380;13.372;2023-09-07T03:17:32;101265.53;;;12.68;100.00
68525;BME280;55524;51.380;13.372;2023-09-07T03:19:58;101255.88;;;12.66;100.00
68525;BME280;55524;51.380;13.372;2023-09-07T03:22:25;101250.59;;;12.66;100.00
68525;BME280;55524;51.380;13.372;2023-09-07T03:24:52;101264.72;;;12.66;100.00
68525;BME280;55524;51.380;13.372;2023-09-07T03:27:18;101259.25;;;12.71;100.00
68525;BME280;55524;51.380;13.372;2023-09-07T03:29:45;101257.00;;;12.85;100.00
68525;BME280;55524;51.380;13.372;2023-09-07T03:32:11;101262.72;;;12.99;100.00
68525;BME280;55524;51.380;13.372;2023-09-07T03:34:38;101265.94;;;13.09;100.00
68525;BME280;55524;51.380;13.372;2023-09-07T03:37:04;101259.16;;;13.27;100.00
68525;BME280;55524;51.380;13.372;2023-09-07T03:39:32;101267.91;;;13.29;100.00
68525;BME280;55524;51.380;13.372;2023-09-07T03:41:58;101266.03;;;13.33;100.00
68525;BME280;55524;51.380;13.372;2023-09-07T03:44:25;101262.28;;;13.38;100.00
68525;BME280;55524;51.380;13.372;2023-09-07T03:46:51;101264.91;;;13.38;100.00
68525;BME280;55524;51.380;13.372;2023-09-07T03:49:17;101265.75;;;13.40;100.00
68525;BME280;55524;51.380;13.372;2023-09-07T03:51:43;101258.66;;;13.41;100.00
68525;BME280;55524;51.380;13.372;2023-09-07T03:54:10;101265.69;;;13.42;100.00
68525;BME280;55524;51.380;13.372;2023-09-07T03:56:36;101267.19;;;13.49;100.00
68525;BME280;55524;51.380;13.372;2023-09-07T03:59:02;101271.47;;;13.53;100.00
68525;BME280;55524;51.380;13.372;2023-09-07T04:01:29;101275.00;;;13.53;100.00
68525;BME280;55524;51.380;13.372;2023-09-07T04:03:57;101274.97;;;13.55;100.00
68525;BME280;55524;51.380;13.372;2023-09-07T04:06:24;101270.41;;;13.59;100.00
68525;BME280;55524;51.380;13.372;2023-09-07T04:08:51;101273.97;;;13.58;100.00
68525;BME280;55524;51.380;13.372;2023-09-07T04:11:17;101273.09;;;13.57;100.00
68525;BME280;55524;51.380;13.372;2023-09-07T04:13:43;101279.41;;;13.55;100.00
68525;BME280;55524;51.380;13.372;2023-09-07T04:16:09;101277.63;;;13.55;100.00
68525;BME280;55524;51.380;13.372;2023-09-07T04:18:36;101280.97;;;13.60;100.00
68525;BME280;55524;51.380;13.372;2023-09-07T04:21:06;101273.97;;;13.58;100.00
68525;BME280;55524;51.380;13.372;2023-09-07T04:23:33;101272.94;;;13.62;100.00
68525;BME280;55524;51.380;13.372;2023-09-07T04:26:11;101274.84;;;13.58;100.00
68525;BME280;55524;51.380;13.372;2023-09-07T04:28:40;101268.53;;;13.61;100.00
68525;BME280;55524;51.380;13.372;2023-09-07T04:31:07;101274.78;;;13.60;100.00
68525;BME280;55524;51.380;13.372;2023-09-07T04:33:34;101280.09;;;13.60;100.00
68525;BME280;55524;51.380;13.372;2023-09-07T04:36:11;101276.59;;;13.59;100.00
68525;BME280;55524;51.380;13.372;2023-09-07T04:38:40;101276.59;;;13.59;100.00
68525;BME280;55524;51.380;13.372;2023-09-07T04:41:11;101278.25;;;13.62;100.00
68525;BME280;55524;51.380;13.372;2023-09-07T04:43:38;101276.47;;;13.62;100.00
68525;BME280;55524;51.380;13.372;2023-09-07T04:46:11;101284.47;;;13.61;100.00
68525;BME280;55524;51.380;13.372;2023-09-07T04:48:38;101290.66;;;13.61;100.00
68525;BME280;55524;51.380;13.372;2023-09-07T04:51:05;101279.28;;;13.58;100.00
68525;BME280;55524;51.380;13.372;2023-09-07T04:53:41;101290.63;;;13.63;100.00
68525;BME280;55524;51.380;13.372;2023-09-07T04:56:08;101291.59;;;13.60;100.00
68525;BME280;55524;51.380;13.372;2023-09-07T04:58:35;101287.97;;;13.63;100.00
68525;BME280;55524;51.380;13.372;2023-09-07T05:01:05;101291.47;;;13.63;100.00
68525;BME280;55524;51.380;13.372;2023-09-07T05:03:32;101291.41;;;13.65;100.00
68525;BME280;55524;51.380;13.372;2023-09-07T05:06:00;101293.78;;;13.72;100.00
68525;BME280;55524;51.380;13.372;2023-09-07T05:08:27;101288.28;;;13.78;100.00
68525;BME280;55524;51.380;13.372;2023-09-07T05:10:57;101291.63;;;13.84;100.00
68525;BME280;55524;51.380;13.372;2023-09-07T05:13:24;101295.81;;;13.89;100.00
68525;BME280;55524;51.380;13.372;2023-09-07T05:15:52;101297.34;;;13.96;100.00
68525;BME280;55524;51.380;13.372;2023-09-07T05:18:19;101303.31;;;14.01;100.00
68525;BME280;55524;51.380;13.372;2023-09-07T05:20:46;101297.91;;;14.05;100.00
68525;BME280;55524;51.380;13.372;2023-09-07T05:23:15;101303.88;;;14.11;100.00
68525;BME280;55524;51.380;13.372;2023-09-07T05:25:48;101304.50;;;14.18;100.00
68525;BME280;55524;51.380;13.372;2023-09-07T05:28:15;101299.69;;;14.27;100.00
68525;BME280;55524;51.380;13.372;2023-09-07T05:30:44;101305.66;;;14.34;100.00
68525;BME280;55524;51.380;13.372;2023-09-07T05:33:12;101304.59;;;14.38;100.00
68525;BME280;55524;51.380;13.372;2023-09-07T05:35:39;101300.88;;;14.42;100.00
68525;BME280;55524;51.380;13.372;2023-09-07T05:38:05;101298.91;;;14.47;100.00
68525;BME280;55524;51.380;13.372;2023-09-07T05:40:39;101305.00;;;14.51;100.00
68525;BME280;55524;51.380;13.372;2023-09-07T05:43:06;101311.84;;;14.57;100.00
68525;BME280;55524;51.380;13.372;2023-09-07T05:45:36;101316.13;;;14.61;100.00
68525;BME280;55524;51.380;13.372;2023-09-07T05:48:03;101306.19;;;14.66;100.00
68525;BME280;55524;51.380;13.372;2023-09-07T05:50:30;101315.66;;;14.73;100.00
68525;BME280;55524;51.380;13.372;2023-09-07T05:52:56;101306.63;;;14.77;100.00
68525;BME280;55524;51.380;13.372;2023-09-07T05:55:22;101308.94;;;14.85;100.00
68525;BME280;55524;51.380;13.372;2023-09-07T05:57:49;101306.78;;;14.94;100.00
68525;BME280;55524;51.380;13.372;2023-09-07T06:00:16;101317.13;;;15.02;100.00
68525;BME280;55524;51.380;13.372;2023-09-07T06:02:45;101307.94;;;15.09;100.00
68525;BME280;55524;51.380;13.372;2023-09-07T06:05:11;101311.06;;;15.19;100.00
68525;BME280;55524;51.380;13.372;2023-09-07T06:07:38;101311.59;;;15.27;100.00
68525;BME280;55524;51.380;13.372;2023-09-07T06:10:04;101314.56;;;15.41;100.00
68525;BME280;55524;51.380;13.372;2023-09-07T06:12:32;101325.94;;;15.45;100.00
68525;BME280;55524;51.380;13.372;2023-09-07T06:14:59;101323.69;;;15.56;100.00
68525;BME280;55524;51.380;13.372;2023-09-07T06:17:25;101319.88;;;15.62;100.00
68525;BME280;55524;51.380;13.372;2023-09-07T06:19:52;101318.59;;;15.72;100.00
68525;BME280;55524;51.380;13.372;2023-09-07T06:22:18;101317.50;;;15.76;100.00
68525;BME280;55524;51.380;13.372;2023-09-07T06:24:44;101317.56;;;15.74;100.00
68525;BME280;55524;51.380;13.372;2023-09-07T06:27:10;101325.72;;;15.90;100.00
68525;BME280;55524;51.380;13.372;2023-09-07T06:29:37;101316.44;;;15.99;100.00
68525;BME280;55524;51.380;13.372;2023-09-07T06:32:03;101326.75;;;16.07;100.00
68525;BME280;55524;51.380;13.372;2023-09-07T06:34:29;101323.81;;;16.13;100.00
68525;BME280;55524;51.380;13.372;2023-09-07T06:36:56;101328.72;;;16.22;100.00
68525;BME280;55524;51.380;13.372;2023-09-07T06:39:22;101330.66;;;16.37;100.00
68525;BME280;55524;51.380;13.372;2023-09-07T06:41:49;101333.06;;;16.43;100.00
68525;BME280;55524;51.380;13.372;2023-09-07T06:44:15;101335.19;;;16.54;100.00
68525;BME280;55524;51.380;13.372;2023-09-07T06:46:41;101333.75;;;16.66;100.00
68525;BME280;55524;51.380;13.372;2023-09-07T06:49:08;101334.69;;;16.84;100.00
68525;BME280;55524;51.380;13.372;2023-09-07T06:51:34;101335.44;;;17.05;100.00
68525;BME280;55524;51.380;13.372;2023-09-07T06:54:00;101332.75;;;17.22;100.00
68525;BME280;55524;51.380;13.372;2023-09-07T06:56:26;101326.66;;;17.37;100.00
68525;BME280;55524;51.380;13.372;2023-09-07T06:58:53;101321.22;;;17.56;100.00
68525;BME280;55524;51.380;13.372;2023-09-07T07:01:20;101315.66;;;17.78;100.00
68525;BME280;55524;51.380;13.372;2023-09-07T07:03:46;101309.94;;;18.02;100.00
68525;BME280;55524;51.380;13.372;2023-09-07T07:06:12;101309.69;;;18.22;100.00
68525;BME280;55524;51.380;13.372;2023-09-07T07:08:39;101309.50;;;18.41;100.00
68525;BME280;55524;51.380;13.372;2023-09-07T07:11:05;101312.88;;;18.44;100.00
68525;BME280;55524;51.380;13.372;2023-09-07T07:13:31;101309.97;;;18.65;100.00
68525;BME280;55524;51.380;13.372;2023-09-07T07:15:57;101302.06;;;18.94;100.00
68525;BME280;55524;51.380;13.372;2023-09-07T07:18:24;101296.94;;;19.35;100.00
68525;BME280;55524;51.380;13.372;2023-09-07T07:20:50;101258.28;;;19.68;100.00
68525;BME280;55524;51.380;13.372;2023-09-07T07:23:19;101257.22;;;20.27;100.00
68525;BME280;55524;51.380;13.372;2023-09-07T07:25:45;101253.09;;;20.63;100.00
68525;BME280;55524;51.380;13.372;2023-09-07T07:28:11;101241.72;;;21.12;96.61
68525;BME280;55524;51.380;13.372;2023-09-07T07:30:39;101222.41;;;21.58;92.51
68525;BME280;55524;51.380;13.372;2023-09-07T07:33:09;101206.22;;;21.83;87.02
68525;BME280;55524;51.380;13.372;2023-09-07T07:35:36;101197.22;;;22.32;83.78
68525;BME280;55524;51.380;13.372;2023-09-07T07:38:03;101182.22;;;22.76;80.03
68525;BME280;55524;51.380;13.372;2023-09-07T07:40:30;101177.44;;;22.93;78.64
68525;BME280;55524;51.380;13.372;2023-09-07T07:42:56;101179.91;;;23.07;77.89
68525;BME280;55524;51.380;13.372;2023-09-07T07:45:23;101174.56;;;23.52;75.95
68525;BME280;55524;51.380;13.372;2023-09-07T07:47:50;101179.44;;;23.47;76.09
68525;BME280;55524;51.380;13.372;2023-09-07T07:50:17;101164.25;;;23.57;71.54
68525;BME280;55524;51.380;13.372;2023-09-07T07:52:44;101152.16;;;24.06;68.13
68525;BME280;55524;51.380;13.372;2023-09-07T07:55:11;101148.34;;;24.20;67.27
68525;BME280;55524;51.380;13.372;2023-09-07T07:57:38;101134.25;;;24.48;65.48
68525;BME280;55524;51.380;13.372;2023-09-07T08:00:05;101114.41;;;24.80;61.63
68525;BME280;55524;51.380;13.372;2023-09-07T08:02:32;101109.50;;;24.95;61.02
68525;BME280;55524;51.380;13.372;2023-09-07T08:04:59;101102.59;;;24.81;59.49
68525;BME280;55524;51.380;13.372;2023-09-07T08:07:25;101124.28;;;24.17;61.70
68525;BME280;55524;51.380;13.372;2023-09-07T08:09:53;101139.78;;;24.03;63.31
68525;BME280;55524;51.380;13.372;2023-09-07T08:12:19;101130.22;;;24.32;61.94
68525;BME280;55524;51.380;13.372;2023-09-07T08:14:45;101148.91;;;23.58;64.60
68525;BME280;55524;51.380;13.372;2023-09-07T08:17:13;101127.78;;;24.61;62.82
68525;BME280;55524;51.380;13.372;2023-09-07T08:19:39;101108.50;;;24.96;59.42
68525;BME280;55524;51.380;13.372;2023-09-07T08:22:06;101115.59;;;25.39;59.38
68525;BME280;55524;51.380;13.372;2023-09-07T08:24:32;101105.09;;;25.15;58.20
68525;BME280;55524;51.380;13.372;2023-09-07T08:26:59;101116.47;;;25.49;60.04
68525;BME280;55524;51.380;13.372;2023-09-07T08:29:26;101116.63;;;25.97;59.11
68525;BME280;55524;51.380;13.372;2023-09-07T08:31:55;101092.13;;;25.59;57.60
68525;BME280;55524;51.380;13.372;2023-09-07T08:34:23;101092.09;;;26.28;56.79
68525;BME280;55524;51.380;13.372;2023-09-07T08:36:50;101088.00;;;26.53;56.45
68525;BME280;55524;51.380;13.372;2023-09-07T08:39:17;101086.50;;;26.68;55.36
68525;BME280;55524;51.380;13.372;2023-09-07T08:41:44;101096.94;;;26.63;55.94
68525;BME280;55524;51.380;13.372;2023-09-07T08:44:11;101068.41;;;26.69;53.58
68525;BME280;55524;51.380;13.372;2023-09-07T08:46:38;101072.13;;;26.58;53.67
68525;BME280;55524;51.380;13.372;2023-09-07T08:49:06;101052.66;;;26.72;51.33
68525;BME280;55524;51.380;13.372;2023-09-07T08:51:33;101067.88;;;27.12;52.80
68525;BME280;55524;51.380;13.372;2023-09-07T08:54:01;101073.00;;;26.49;53.45
68525;BME280;55524;51.380;13.372;2023-09-07T08:56:27;101078.41;;;27.06;53.34
68525;BME280;55524;51.380;13.372;2023-09-07T08:58:53;101066.50;;;27.71;50.71
68525;BME280;55524;51.380;13.372;2023-09-07T09:01:20;101054.47;;;28.19;50.18
68525;BME280;55524;51.380;13.372;2023-09-07T09:03:50;101048.75;;;28.31;49.46
68525;BME280;55524;51.380;13.372;2023-09-07T09:06:20;101053.28;;;28.40;49.59
68525;BME280;55524;51.380;13.372;2023-09-07T09:08:52;101058.75;;;27.31;50.39
68525;BME280;55524;51.380;13.372;2023-09-07T09:11:19;101054.09;;;27.69;48.79
68525;BME280;55524;51.380;13.372;2023-09-07T09:13:47;101044.34;;;27.94;48.35
68525;BME280;55524;51.380;13.372;2023-09-07T09:16:14;101038.38;;;28.44;47.37
68525;BME280;55524;51.380;13.372;2023-09-07T09:18:57;101042.31;;;29.02;47.60
68525;BME280;55524;51.380;13.372;2023-09-07T09:21:25;101024.44;;;28.99;45.71
68525;BME280;55524;51.380;13.372;2023-09-07T09:23:54;101042.22;;;28.93;47.27
68525;BME280;55524;51.380;13.372;2023-09-07T09:26:21;101047.66;;;29.11;47.72
68525;BME280;55524;51.380;13.372;2023-09-07T09:28:47;101041.34;;;29.11;47.17
68525;BME280;55524;51.380;13.372;2023-09-07T09:31:16;101037.34;;;28.97;46.23
68525;BME280;55524;51.380;13.372;2023-09-07T09:33:47;101039.63;;;29.10;47.39
68525;BME280;55524;51.380;13.372;2023-09-07T09:36:13;101040.41;;;28.06;47.39
68525;BME280;55524;51.380;13.372;2023-09-07T09:38:40;101048.50;;;28.60;47.77
68525;BME280;55524;51.380;13.372;2023-09-07T09:41:13;101028.88;;;29.00;46.08
68525;BME280;55524;51.380;13.372;2023-09-07T09:43:40;101029.22;;;29.48;46.10
68525;BME280;55524;51.380;13.372;2023-09-07T09:46:06;101032.13;;;29.46;46.05
68525;BME280;55524;51.380;13.372;2023-09-07T09:48:34;101020.59;;;29.60;44.84
68525;BME280;55524;51.380;13.372;2023-09-07T09:51:02;101022.81;;;29.65;45.36
68525;BME280;55524;51.380;13.372;2023-09-07T09:53:30;101026.44;;;29.82;46.11
68525;BME280;55524;51.380;13.372;2023-09-07T09:55:56;101019.25;;;29.22;46.16
68525;BME280;55524;51.380;13.372;2023-09-07T09:58:23;101028.34;;;29.39;46.31
68525;BME280;55524;51.380;13.372;2023-09-07T10:00:53;101027.09;;;29.25;46.30
68525;BME280;55524;51.380;13.372;2023-09-07T10:06:23;101037.28;;;28.89;47.69
68525;BME280;55524;51.380;13.372;2023-09-07T10:09:11;101014.03;;;29.37;46.01
68525;BME280;55524;51.380;13.372;2023-09-07T10:11:43;101019.16;;;28.98;46.07
68525;BME280;55524;51.380;13.372;2023-09-07T10:14:09;101018.59;;;28.60;46.66
68525;BME280;55524;51.380;13.372;2023-09-07T10:16:43;101011.44;;;28.93;45.64
68525;BME280;55524;51.380;13.372;2023-09-07T10:19:21;101017.91;;;28.92;46.57
68525;BME280;55524;51.380;13.372;2023-09-07T10:21:48;101017.50;;;29.55;45.31
68525;BME280;55524;51.380;13.372;2023-09-07T10:24:30;101002.78;;;29.32;45.06
68525;BME280;55524;51.380;13.372;2023-09-07T10:27:06;101006.53;;;30.22;45.00
68525;BME280;55524;51.380;13.372;2023-09-07T10:29:44;100988.56;;;30.52;43.37
68525;BME280;55524;51.380;13.372;2023-09-07T10:32:10;100999.69;;;30.34;44.27
68525;BME280;55524;51.380;13.372;2023-09-07T10:34:39;101003.59;;;30.07;44.34
68525;BME280;55524;51.380;13.372;2023-09-07T10:37:08;100990.63;;;29.93;43.08
68525;BME280;55524;51.380;13.372;2023-09-07T10:39:39;100975.16;;;29.94;42.38
68525;BME280;55524;51.380;13.372;2023-09-07T10:42:06;100977.50;;;30.54;42.27
68525;BME280;55524;51.380;13.372;2023-09-07T10:44:32;100966.03;;;30.58;40.89
68525;BME280;55524;51.380;13.372;2023-09-07T10:46:58;100965.75;;;30.37;41.34
68525;BME280;55524;51.380;13.372;2023-09-07T10:49:25;100980.44;;;29.20;43.35
68525;BME280;55524;51.380;13.372;2023-09-07T10:51:52;100970.69;;;29.93;40.96
68525;BME280;55524;51.380;13.372;2023-09-07T10:54:23;100971.28;;;30.68;41.83
68525;BME280;55524;51.380;13.372;2023-09-07T10:56:50;100974.53;;;30.72;41.51
68525;BME280;55524;51.380;13.372;2023-09-07T10:59:17;100970.03;;;29.58;42.21
68525;BME280;55524;51.380;13.372;2023-09-07T11:01:47;100977.00;;;28.76;43.61
68525;BME280;55524;51.380;13.372;2023-09-07T11:04:16;100968.16;;;29.75;41.65
68525;BME280;55524;51.380;13.372;2023-09-07T11:06:43;100959.31;;;30.30;40.82
68525;BME280;55524;51.380;13.372;2023-09-07T11:09:10;100959.06;;;30.56;40.06
68525;BME280;55524;51.380;13.372;2023-09-07T11:11:37;100952.78;;;30.47;40.95
68525;BME280;55524;51.380;13.372;2023-09-07T11:14:07;100952.13;;;30.45;40.98
68525;BME280;55524;51.380;13.372;2023-09-07T11:16:34;100957.16;;;30.56;40.79
68525;BME280;55524;51.380;13.372;2023-09-07T11:19:07;100944.22;;;30.58;40.02
68525;BME280;55524;51.380;13.372;2023-09-07T11:21:37;100947.66;;;29.46;41.59
68525;BME280;55524;51.380;13.372;2023-09-07T11:24:03;100954.41;;;29.26;41.16
68525;BME280;55524;51.380;13.372;2023-09-07T11:26:46;100942.22;;;28.96;40.49
68525;BME280;55524;51.380;13.372;2023-09-07T11:29:16;100944.31;;;30.18;39.95
68525;BME280;55524;51.380;13.372;2023-09-07T11:31:43;100943.16;;;30.76;39.23
68525;BME280;55524;51.380;13.372;2023-09-07T11:34:14;100934.91;;;30.84;38.99
68525;BME280;55524;51.380;13.372;2023-09-07T11:36:42;100936.63;;;29.88;39.79
68525;BME280;55524;51.380;13.372;2023-09-07T11:39:08;100928.03;;;31.04;37.90
68525;BME280;55524;51.380;13.372;2023-09-07T11:41:43;100934.00;;;30.52;37.94
68525;BME280;55524;51.380;13.372;2023-09-07T11:44:10;100928.44;;;30.29;38.19
68525;BME280;55524;51.380;13.372;2023-09-07T11:46:37;100907.94;;;31.20;36.90
68525;BME280;55524;51.380;13.372;2023-09-07T11:49:03;100919.28;;;30.78;37.82
68525;BME280;55524;51.380;13.372;2023-09-07T11:51:35;100929.50;;;29.71;38.58
68525;BME280;55524;51.380;13.372;2023-09-07T11:54:04;100934.13;;;30.67;38.05
68525;BME280;55524;51.380;13.372;2023-09-07T11:56:30;100908.91;;;30.96;37.02
68525;BME280;55524;51.380;13.372;2023-09-07T11:58:57;100903.16;;;30.44;36.95
68525;BME280;55524;51.380;13.372;2023-09-07T12:01:23;100901.53;;;30.74;36.74
68525;BME280;55524;51.380;13.372;2023-09-07T12:03:49;100904.28;;;31.28;36.21
68525;BME280;55524;51.380;13.372;2023-09-07T12:06:16;100893.09;;;31.46;35.80
68525;BME280;55524;51.380;13.372;2023-09-07T12:08:57;100893.81;;;31.40;35.76
68525;BME280;55524;51.380;13.372;2023-09-07T12:11:24;100897.09;;;30.73;36.47
68525;BME280;55524;51.380;13.372;2023-09-07T12:13:50;100894.75;;;30.61;36.46
68525;BME280;55524;51.380;13.372;2023-09-07T12:16:16;100878.72;;;30.98;34.92
68525;BME280;55524;51.380;13.372;2023-09-07T12:18:43;100871.47;;;30.82;35.32
68525;BME280;55524;51.380;13.372;2023-09-07T12:21:09;100874.09;;;30.59;36.14
68525;BME280;55524;51.380;13.372;2023-09-07T12:23:35;100862.66;;;30.08;35.52
68525;BME280;55524;51.380;13.372;2023-09-07T12:26:02;100867.13;;;31.19;35.30
68525;BME280;55524;51.380;13.372;2023-09-07T12:28:30;100871.50;;;31.28;35.44
68525;BME280;55524;51.380;13.372;2023-09-07T12:30:57;100860.56;;;31.28;34.74
68525;BME280;55524;51.380;13.372;2023-09-07T12:33:24;100860.63;;;31.20;34.93
68525;BME280;55524;51.380;13.372;2023-09-07T12:35:51;100861.22;;;31.61;35.15
68525;BME280;55524;51.380;13.372;2023-09-07T12:38:17;100861.03;;;32.00;36.19